createdAt,value
2022-08-04T00:00:07.205Z,43.40
2022-08-04T00:02:45.361Z,43.10
2022-08-04T00:05:24.383Z,42.40
2022-08-04T00:08:05.758Z,42.00
2022-08-04T00:10:35.871Z,42.20
2022-08-04T00:13:05.514Z,42.50
2022-08-04T00:15:34.875Z,42.10
2022-08-04T00:18:05.892Z,42.00
2022-08-04T00:20:38.948Z,41.80
2022-08-04T00:23:07.687Z,42.00
2022-08-04T00:25:35.946Z,42.00
2022-08-04T00:28:03.905Z,41.60
2022-08-04T00:30:32.241Z,40.90
2022-08-04T00:33:01.337Z,41.10
2022-08-04T00:35:30.182Z,41.70
2022-08-04T00:38:00.575Z,41.10
2022-08-04T00:40:36.597Z,41.20
2022-08-04T00:43:22.676Z,41.70
2022-08-04T00:46:24.239Z,42.40
2022-08-04T00:49:04.264Z,43.50
2022-08-04T00:51:45.184Z,44.00
2022-08-04T00:54:24.533Z,43.70
2022-08-04T00:57:33.501Z,43.80
2022-08-04T01:00:07.560Z,43.00
2022-08-04T01:02:40.644Z,43.00
2022-08-04T01:05:19.366Z,43.70
2022-08-04T01:08:22.115Z,43.80
2022-08-04T01:11:03.082Z,43.20
2022-08-04T01:13:48.609Z,43.70
2022-08-04T01:16:19.063Z,43.90
2022-08-04T01:18:53.655Z,42.30
2022-08-04T01:21:47.580Z,42.40
2022-08-04T01:24:31.171Z,43.30
2022-08-04T01:27:04.827Z,44.10
2022-08-04T01:29:46.942Z,44.60
2022-08-04T01:32:25.844Z,44.40
2022-08-04T01:35:00.035Z,43.40
2022-08-04T01:37:42.725Z,43.00
2022-08-04T01:40:14.258Z,43.30
2022-08-04T01:42:45.465Z,43.70
2022-08-04T01:45:16.634Z,44.20
2022-08-04T01:47:51.717Z,43.60
2022-08-04T01:50:20.166Z,45.00
2022-08-04T01:52:51.154Z,45.70
2022-08-04T01:55:20.146Z,45.70
2022-08-04T01:57:49.812Z,45.20
2022-08-04T02:00:20.680Z,44.40
2022-08-04T02:02:50.145Z,44.60
2022-08-04T02:05:21.171Z,43.00
2022-08-04T02:08:08.526Z,43.30
2022-08-04T02:10:51.730Z,43.50
2022-08-04T02:13:24.874Z,44.20
2022-08-04T02:16:05.657Z,44.40
2022-08-04T02:18:41.301Z,45.00
2022-08-04T02:21:09.839Z,45.60
2022-08-04T02:23:40.877Z,45.70
2022-08-04T02:26:19.290Z,45.00
2022-08-04T02:29:04.520Z,44.60
2022-08-04T02:31:37.217Z,45.20
2022-08-04T02:34:09.486Z,44.90
2022-08-04T02:36:41.014Z,46.00
2022-08-04T02:39:10.500Z,46.70
2022-08-04T02:41:40.059Z,47.20
2022-08-04T02:44:10.518Z,46.20
2022-08-04T02:46:41.494Z,46.50
2022-08-04T02:49:11.239Z,46.30
2022-08-04T02:51:42.352Z,46.90
2022-08-04T02:54:10.382Z,46.90
2022-08-04T02:56:40.589Z,47.40
2022-08-04T02:59:10.424Z,46.60
2022-08-04T03:01:57.051Z,46.30
2022-08-04T03:04:44.288Z,46.50
2022-08-04T03:07:51.086Z,46.30
2022-08-04T03:10:51.730Z,46.60
2022-08-04T03:13:39.016Z,45.80
2022-08-04T03:16:33.490Z,45.40
2022-08-04T03:19:36.897Z,46.20
2022-08-04T03:22:26.174Z,46.10
2022-08-04T03:25:31.098Z,47.30
2022-08-04T03:28:29.143Z,48.00
2022-08-04T03:31:25.344Z,47.50
2022-08-04T03:34:23.650Z,47.40
2022-08-04T03:37:30.205Z,46.80
2022-08-04T03:40:29.770Z,46.50
2022-08-04T03:43:58.165Z,46.70
2022-08-04T03:46:45.570Z,47.20
2022-08-04T03:49:43.539Z,47.00
2022-08-04T03:52:54.291Z,47.70
2022-08-04T03:55:56.474Z,48.70
2022-08-04T03:58:48.725Z,48.50
2022-08-04T04:01:41.626Z,47.10
2022-08-04T04:04:51.848Z,47.60
2022-08-04T04:08:12.576Z,48.70
2022-08-04T04:11:22.513Z,48.60
2022-08-04T04:14:12.674Z,48.10
2022-08-04T04:16:58.268Z,48.50
2022-08-04T04:20:04.443Z,48.40
2022-08-04T04:23:00.365Z,47.80
2022-08-04T04:25:42.515Z,47.60
2022-08-04T04:28:44.832Z,48.30
2022-08-04T04:31:35.914Z,47.80
2022-08-04T04:34:16.178Z,47.90
2022-08-04T04:36:56.061Z,47.70
2022-08-04T04:39:33.527Z,47.90
2022-08-04T04:42:17.623Z,48.20
2022-08-04T04:45:04.153Z,47.10
2022-08-04T04:48:07.348Z,46.50
2022-08-04T04:50:41.023Z,46.40
2022-08-04T04:53:18.037Z,46.20
2022-08-04T04:55:54.132Z,46.40
2022-08-04T04:58:25.043Z,46.80
2022-08-04T05:01:19.698Z,45.70
2022-08-04T05:04:03.671Z,44.80
2022-08-04T05:06:46.365Z,44.50
2022-08-04T05:09:47.279Z,44.00
2022-08-04T05:14:31.471Z,43.50
2022-08-04T05:15:41.031Z,42.60
2022-08-04T05:18:13.347Z,42.60
2022-08-04T05:20:45.086Z,41.70
2022-08-04T05:23:18.123Z,41.90
2022-08-04T05:25:58.674Z,41.30
2022-08-04T05:28:34.185Z,40.40
2022-08-04T05:31:07.371Z,40.60
2022-08-04T05:33:42.806Z,40.60
2022-08-04T05:36:24.926Z,40.50
2022-08-04T05:39:06.163Z,40.20
2022-08-04T05:41:45.586Z,40.60
2022-08-04T05:44:24.789Z,40.60
2022-08-04T05:46:57.129Z,40.50
2022-08-04T05:49:26.267Z,39.70
2022-08-04T05:51:56.811Z,40.10
2022-08-04T05:54:26.198Z,39.30
2022-08-04T05:56:55.965Z,39.50
2022-08-04T05:59:25.707Z,38.10
2022-08-04T06:01:58.034Z,37.80
2022-08-04T06:04:32.119Z,35.60
2022-08-04T06:07:00.138Z,34.50
2022-08-04T06:09:28.247Z,33.60
2022-08-04T06:12:03.544Z,32.10
2022-08-04T06:14:38.177Z,32.50
2022-08-04T06:18:33.651Z,31.80
2022-08-04T06:20:17.805Z,32.60
2022-08-04T06:22:53.536Z,32.00
2022-08-04T06:25:24.793Z,32.20
2022-08-04T06:27:53.331Z,32.00
2022-08-04T06:30:26.074Z,32.00
2022-08-04T06:33:03.833Z,30.90
2022-08-04T06:35:34.118Z,31.20
2022-08-04T06:38:03.773Z,29.30
2022-08-04T06:40:34.575Z,29.90
2022-08-04T06:43:03.860Z,28.80
2022-08-04T06:45:34.255Z,28.70
2022-08-04T06:48:04.628Z,28.70
2022-08-04T06:51:24.365Z,28.20
2022-08-04T06:53:21.601Z,28.10
2022-08-04T06:55:50.518Z,27.60
2022-08-04T06:58:20.302Z,28.00
2022-08-04T07:00:49.547Z,28.10
2022-08-04T07:03:21.748Z,28.10
2022-08-04T07:05:51.456Z,28.10
2022-08-04T07:08:20.186Z,27.40
2022-08-04T07:10:48.331Z,26.70
2022-08-04T07:13:17.964Z,27.50
2022-08-04T07:15:47.651Z,26.80
2022-08-04T07:18:15.583Z,28.10
2022-08-04T07:20:46.149Z,27.10
2022-08-04T07:23:17.801Z,26.90
2022-08-04T07:26:00.829Z,25.90
2022-08-04T07:28:40.796Z,25.80
2022-08-04T07:31:32.449Z,26.80
2022-08-04T07:34:17.043Z,26.00
2022-08-04T07:36:52.922Z,26.20
2022-08-04T07:39:28.095Z,25.60
2022-08-04T07:41:58.932Z,25.00
2022-08-04T07:44:27.586Z,25.30
2022-08-04T07:46:55.837Z,25.30
2022-08-04T07:49:55.250Z,24.40
2022-08-04T07:52:13.741Z,24.70
2022-08-04T07:54:43.312Z,23.60
2022-08-04T07:57:19.691Z,24.20
2022-08-04T07:59:59.398Z,24.30
2022-08-04T08:02:28.181Z,24.50
2022-08-04T08:04:56.270Z,24.00
2022-08-04T08:07:25.634Z,23.60
2022-08-04T08:09:53.502Z,23.30
2022-08-04T08:12:38.285Z,22.80
2022-08-04T08:15:13.325Z,22.80
2022-08-04T08:17:59.993Z,21.60
2022-08-04T08:20:30.626Z,22.10
2022-08-04T08:23:01.924Z,22.30
2022-08-04T08:25:31.631Z,22.40
2022-08-04T08:28:00.016Z,21.80
2022-08-04T08:30:31.537Z,21.40
2022-08-04T08:33:02.419Z,22.00
2022-08-04T08:35:46.912Z,21.50
2022-08-04T08:38:29.829Z,21.50
2022-08-04T08:41:13.667Z,21.20
2022-08-04T08:44:04.639Z,20.00
2022-08-04T08:47:05.474Z,20.00
2022-08-04T08:50:17.685Z,19.50
2022-08-04T08:53:08.119Z,20.70
2022-08-04T08:55:50.043Z,20.40
2022-08-04T08:58:39.705Z,20.40
2022-08-04T09:01:17.233Z,20.20
2022-08-04T09:04:11.393Z,19.50
2022-08-04T09:07:24.505Z,21.30
2022-08-04T09:10:07.114Z,20.00
2022-08-04T09:12:45.260Z,20.20
2022-08-04T09:15:16.382Z,20.00
2022-08-04T09:17:49.677Z,19.30
2022-08-04T09:20:26.161Z,20.00
2022-08-04T09:23:06.705Z,18.00
2022-08-04T09:25:41.549Z,19.00
2022-08-04T09:28:43.636Z,18.10
2022-08-04T09:31:12.561Z,17.50
2022-08-04T09:33:48.943Z,18.60
2022-08-04T09:36:27.205Z,18.90
2022-08-04T09:39:07.437Z,17.50
2022-08-04T09:41:59.823Z,19.00
2022-08-04T09:44:52.325Z,18.00
2022-08-04T09:47:39.716Z,18.70
2022-08-04T09:50:19.785Z,18.50
2022-08-04T09:52:55.423Z,17.50
2022-08-04T09:55:38.458Z,17.00
2022-08-04T09:58:34.809Z,16.00
2022-08-04T10:01:07.805Z,15.30
2022-08-04T10:03:39.001Z,15.00
2022-08-04T10:06:21.782Z,15.00
2022-08-04T10:09:15.525Z,15.40
2022-08-04T10:11:56.232Z,16.30
2022-08-04T10:14:47.257Z,15.20
2022-08-04T10:17:33.455Z,15.40
2022-08-04T10:20:09.558Z,14.60
2022-08-04T10:23:02.337Z,14.80
2022-08-04T10:26:06.250Z,15.90
2022-08-04T10:28:29.893Z,15.80
2022-08-04T10:31:02.235Z,15.60
2022-08-04T10:33:39.634Z,15.80
2022-08-04T10:36:10.583Z,15.80
2022-08-04T10:38:47.053Z,15.10
2022-08-04T10:41:25.320Z,15.40
2022-08-04T10:44:06.934Z,15.60
2022-08-04T10:46:41.694Z,14.90
2022-08-04T10:49:22.663Z,15.20
2022-08-04T10:51:58.982Z,14.30
2022-08-04T10:54:32.388Z,15.00
2022-08-04T10:57:05.644Z,16.00
2022-08-04T10:59:47.087Z,14.50
2022-08-04T11:02:28.028Z,15.70
2022-08-04T11:05:07.515Z,15.20
2022-08-04T11:07:38.617Z,15.20
2022-08-04T11:10:08.891Z,13.60
2022-08-04T11:12:39.068Z,13.90
2022-08-04T11:15:11.995Z,13.70
2022-08-04T11:17:42.681Z,13.10
2022-08-04T11:20:34.577Z,13.10
2022-08-04T11:23:09.067Z,13.20
2022-08-04T11:25:48.489Z,13.50
2022-08-04T11:28:32.375Z,14.30
2022-08-04T11:31:08.889Z,13.90
2022-08-04T11:33:44.185Z,13.40
2022-08-04T11:36:21.063Z,13.60
2022-08-04T11:38:57.700Z,13.00
2022-08-04T11:41:38.751Z,13.90
2022-08-04T11:44:12.558Z,13.20
2022-08-04T11:46:43.898Z,13.70
2022-08-04T11:49:17.438Z,12.80
2022-08-04T11:51:47.614Z,12.80
2022-08-04T11:54:16.709Z,13.00
2022-08-04T11:56:44.878Z,12.40
2022-08-04T11:59:12.743Z,12.70
2022-08-04T12:01:58.094Z,12.60
2022-08-04T12:04:35.648Z,13.10
2022-08-04T12:10:15.198Z,12.10
2022-08-04T12:12:49.336Z,12.50
2022-08-04T12:15:24.382Z,12.10
2022-08-04T12:18:00.450Z,12.70
2022-08-04T12:20:40.471Z,12.20
2022-08-04T12:23:16.401Z,13.00
2022-08-04T12:25:48.099Z,13.30
2022-08-04T12:28:23.401Z,12.40
2022-08-04T12:31:01.372Z,12.30
2022-08-04T12:34:05.324Z,12.70
2022-08-04T12:36:36.127Z,12.80
2022-08-04T12:39:11.396Z,13.20
2022-08-04T12:41:43.152Z,12.60
2022-08-04T12:44:33.381Z,12.90
2022-08-04T12:47:27.402Z,13.60
2022-08-04T12:50:00.756Z,13.10
2022-08-04T12:52:59.250Z,12.90
2022-08-04T12:55:24.353Z,12.30
2022-08-04T12:57:53.574Z,13.40
2022-08-04T13:00:29.574Z,12.30
2022-08-04T13:03:05.546Z,13.10
2022-08-04T13:05:39.873Z,12.90
2022-08-04T13:08:09.324Z,11.90
2022-08-04T13:10:42.364Z,11.00
2022-08-04T13:13:16.949Z,11.10
2022-08-04T13:15:47.175Z,12.60
2022-08-04T13:18:29.697Z,11.30
2022-08-04T13:21:19.469Z,11.40
2022-08-04T13:24:19.925Z,11.00
2022-08-04T13:26:54.778Z,11.00
2022-08-04T13:30:00.304Z,11.30
2022-08-04T13:32:17.577Z,11.30
2022-08-04T13:34:49.164Z,11.60
2022-08-04T13:37:26.447Z,11.90
2022-08-04T13:39:56.691Z,12.30
2022-08-04T13:42:28.029Z,11.80
2022-08-04T13:44:59.453Z,12.20
2022-08-04T13:47:33.376Z,12.40
2022-08-04T13:50:17.670Z,11.80
2022-08-04T13:52:47.846Z,13.20
2022-08-04T13:55:28.209Z,14.00
2022-08-04T13:58:06.058Z,11.80
2022-08-04T14:00:45.025Z,11.00
2022-08-04T14:03:24.776Z,12.10
2022-08-04T14:06:16.182Z,11.90
2022-08-04T14:08:50.105Z,12.00
2022-08-04T14:12:10.731Z,12.60
2022-08-04T14:14:18.439Z,12.30
2022-08-04T14:17:00.840Z,11.80
2022-08-04T14:19:36.068Z,10.90
2022-08-04T14:22:05.470Z,11.00
2022-08-04T14:24:33.280Z,10.90
2022-08-04T14:27:01.766Z,11.30
2022-08-04T14:29:39.396Z,10.90
2022-08-04T14:32:12.680Z,10.30
2022-08-04T14:34:45.125Z,10.40
2022-08-04T14:37:19.429Z,10.40
2022-08-04T14:40:19.252Z,10.90
2022-08-04T14:42:42.524Z,10.70
2022-08-04T14:45:13.019Z,10.50
2022-08-04T14:47:52.963Z,10.40
2022-08-04T14:50:22.753Z,10.50
2022-08-04T14:52:50.597Z,11.30
2022-08-04T14:55:21.208Z,11.80
2022-08-04T14:58:35.854Z,11.80
2022-08-04T15:00:38.969Z,11.90
2022-08-04T15:03:08.959Z,12.20
2022-08-04T15:06:00.269Z,11.90
2022-08-04T15:08:29.198Z,12.30
2022-08-04T15:11:02.493Z,12.20
2022-08-04T15:13:30.723Z,12.00
2022-08-04T15:16:07.576Z,13.20
2022-08-04T15:18:37.432Z,13.80
2022-08-04T15:21:06.586Z,13.50
2022-08-04T15:23:39.524Z,13.30
2022-08-04T15:26:09.618Z,13.40
2022-08-04T15:28:40.807Z,13.10
2022-08-04T15:32:04.506Z,12.80
2022-08-04T15:33:59.643Z,12.80
2022-08-04T15:36:35.620Z,12.70
2022-08-04T15:39:09.769Z,13.40
2022-08-04T15:41:55.332Z,12.90
2022-08-04T15:44:59.917Z,12.50
2022-08-04T15:47:29.208Z,12.70
2022-08-04T15:50:09.740Z,12.90
2022-08-04T15:53:12.543Z,12.90
2022-08-04T15:55:42.833Z,13.10
2022-08-04T15:58:12.507Z,13.20
2022-08-04T16:01:16.519Z,13.10
2022-08-04T16:03:57.848Z,13.80
2022-08-04T16:06:45.168Z,13.80
2022-08-04T16:09:45.846Z,13.50
2022-08-04T16:12:54.401Z,13.40
2022-08-04T16:15:39.398Z,13.80
2022-08-04T16:18:12.262Z,13.60
2022-08-04T16:20:47.533Z,13.60
2022-08-04T16:24:10.929Z,13.70
2022-08-04T16:26:54.920Z,13.90
2022-08-04T16:29:43.011Z,14.20
2022-08-04T16:32:16.873Z,14.80
2022-08-04T16:34:55.238Z,14.90
2022-08-04T16:37:34.893Z,14.90
2022-08-04T16:40:28.569Z,14.90
2022-08-04T16:43:02.111Z,14.80
2022-08-04T16:45:48.656Z,14.70
2022-08-04T16:48:18.505Z,14.70
2022-08-04T16:50:52.333Z,15.10
2022-08-04T16:54:03.287Z,15.00
2022-08-04T16:56:14.481Z,15.00
2022-08-04T16:58:53.857Z,15.20
2022-08-04T17:01:32.991Z,15.30
2022-08-04T17:04:06.029Z,15.80
2022-08-04T17:06:36.432Z,15.60
2022-08-04T17:09:11.617Z,15.30
2022-08-04T17:11:40.067Z,15.10
2022-08-04T17:14:08.078Z,15.40
2022-08-04T17:16:38.019Z,15.50
2022-08-04T17:19:25.179Z,15.40
2022-08-04T17:22:03.005Z,15.50
2022-08-04T17:24:36.798Z,15.60
2022-08-04T17:28:10.898Z,15.50
2022-08-04T17:29:53.616Z,15.80
2022-08-04T17:32:23.295Z,15.50
2022-08-04T17:34:52.731Z,15.40
2022-08-04T17:37:53.014Z,16.20
2022-08-04T17:40:17.910Z,15.90
2022-08-04T17:42:46.181Z,15.90
2022-08-04T17:45:49.068Z,16.30
2022-08-04T17:48:09.969Z,16.30
2022-08-04T17:50:43.536Z,16.40
2022-08-04T17:53:13.090Z,16.50
2022-08-04T17:55:47.116Z,18.40
2022-08-04T18:01:24.253Z,20.20
2022-08-04T18:03:53.281Z,21.20
2022-08-04T18:06:23.408Z,21.00
2022-08-04T18:08:57.859Z,21.60
2022-08-04T18:11:34.809Z,23.00
2022-08-04T18:14:09.650Z,23.80
2022-08-04T18:16:44.095Z,25.20
2022-08-04T18:19:13.019Z,26.30
2022-08-04T18:21:46.808Z,26.50
2022-08-04T18:24:35.565Z,27.10
2022-08-04T18:27:19.088Z,26.50
2022-08-04T18:30:15.472Z,26.40
2022-08-04T18:32:35.636Z,27.00
2022-08-04T18:35:05.576Z,26.10
2022-08-04T18:38:05.769Z,25.10
2022-08-04T18:40:26.408Z,25.20
2022-08-04T18:43:00.153Z,25.10
2022-08-04T18:45:34.632Z,25.00
2022-08-04T18:48:14.902Z,25.50
2022-08-04T18:51:10.420Z,25.50
2022-08-04T18:53:34.841Z,25.60
2022-08-04T18:56:04.141Z,26.30
2022-08-04T18:58:35.631Z,28.90
2022-08-04T19:01:13.610Z,28.60
2022-08-04T19:03:44.757Z,29.20
2022-08-04T19:06:16.659Z,29.00
2022-08-04T19:08:53.976Z,28.70
2022-08-04T19:11:37.056Z,28.50
2022-08-04T19:14:13.253Z,31.60
2022-08-04T19:16:46.141Z,31.40
2022-08-04T19:19:15.484Z,31.30
2022-08-04T19:22:01.947Z,32.70
2022-08-04T19:24:35.014Z,32.80
2022-08-04T19:27:08.285Z,32.60
2022-08-04T19:29:41.356Z,31.60
2022-08-04T19:34:59.900Z,30.10
2022-08-04T19:38:01.529Z,29.80
2022-08-04T19:40:16.011Z,30.40
2022-08-04T19:43:14.298Z,31.10
2022-08-04T19:45:45.224Z,31.70
2022-08-04T19:48:18.679Z,31.00
2022-08-04T19:50:47.546Z,31.70
2022-08-04T19:53:18.771Z,31.90
2022-08-04T19:55:49.775Z,32.40
2022-08-04T19:58:19.775Z,31.10
2022-08-04T20:00:55.598Z,30.50
2022-08-04T20:04:10.266Z,31.00
2022-08-04T20:06:11.686Z,29.80
2022-08-04T20:08:48.421Z,31.30
2022-08-04T20:11:17.269Z,30.90
2022-08-04T20:16:35.955Z,30.80
2022-08-04T20:19:06.191Z,31.40
2022-08-04T20:21:53.486Z,31.70
2022-08-04T20:24:38.645Z,32.10
2022-08-04T20:27:14.686Z,32.40
2022-08-04T20:29:43.580Z,32.10
2022-08-04T20:32:19.923Z,31.60
2022-08-04T20:34:48.557Z,31.70
2022-08-04T20:37:16.481Z,31.90
2022-08-04T20:39:44.450Z,31.60
2022-08-04T20:42:12.363Z,31.70
2022-08-04T20:44:42.048Z,32.10
2022-08-04T20:47:10.276Z,32.90
2022-08-04T20:49:43.133Z,33.20
2022-08-04T20:52:16.380Z,33.70
2022-08-04T20:54:48.622Z,33.70
2022-08-04T20:57:17.148Z,33.70
2022-08-04T20:59:59.576Z,33.70
2022-08-04T21:02:29.778Z,33.70
2022-08-04T21:04:58.923Z,33.80
2022-08-04T21:07:27.229Z,33.90
2022-08-04T21:09:55.308Z,33.80
2022-08-04T21:12:27.238Z,33.70
2022-08-04T21:14:57.783Z,33.80
2022-08-04T21:17:58.742Z,33.20
2022-08-04T21:20:27.218Z,32.60
2022-08-04T21:22:55.786Z,33.30
2022-08-04T21:25:27.578Z,33.20
2022-08-04T21:27:55.361Z,33.60
2022-08-04T21:30:27.093Z,35.00
2022-08-04T21:32:55.709Z,36.40
2022-08-04T21:35:36.871Z,36.50
2022-08-04T21:38:16.401Z,37.10
2022-08-04T21:40:53.550Z,37.40
2022-08-04T21:43:23.636Z,36.20
2022-08-04T21:45:55.999Z,37.00
2022-08-04T21:48:27.327Z,36.20
2022-08-04T21:50:57.157Z,35.40
2022-08-04T21:53:27.660Z,35.70
2022-08-04T21:56:05.445Z,35.10
2022-08-04T21:58:36.243Z,35.80
2022-08-04T22:01:12.615Z,35.50
2022-08-04T22:03:52.351Z,35.90
2022-08-04T22:06:28.438Z,36.30
2022-08-04T22:08:57.426Z,35.70
2022-08-04T22:11:43.897Z,35.30
2022-08-04T22:14:16.547Z,35.40
2022-08-04T22:16:45.333Z,35.40
2022-08-04T22:19:13.924Z,35.40
2022-08-04T22:21:45.314Z,35.80
2022-08-04T22:24:14.832Z,36.80
2022-08-04T22:26:42.715Z,36.50
2022-08-04T22:29:14.420Z,37.00
2022-08-04T22:31:56.164Z,37.20
2022-08-04T22:34:25.423Z,37.40
2022-08-04T22:36:54.577Z,38.00
2022-08-04T22:39:23.502Z,38.00
2022-08-04T22:42:04.157Z,38.60
2022-08-04T22:44:33.328Z,38.50
2022-08-04T22:47:01.885Z,38.40
2022-08-04T22:49:31.269Z,38.10
2022-08-04T22:52:02.887Z,37.50
2022-08-04T22:54:38.001Z,37.90
2022-08-04T22:57:06.173Z,38.70
2022-08-04T22:59:39.884Z,39.20
2022-08-04T23:02:10.880Z,39.40
2022-08-04T23:04:38.944Z,39.00
2022-08-04T23:07:09.413Z,38.60
2022-08-04T23:09:49.533Z,37.70
2022-08-04T23:12:27.524Z,37.20
2022-08-04T23:14:56.652Z,36.90
2022-08-04T23:17:25.454Z,36.50
2022-08-04T23:19:58.795Z,37.80
2022-08-04T23:22:42.049Z,38.00
2022-08-04T23:25:15.712Z,37.60
2022-08-04T23:27:50.614Z,37.60
2022-08-04T23:30:21.864Z,37.40
2022-08-04T23:32:52.806Z,37.40
2022-08-04T23:35:22.041Z,37.20
2022-08-04T23:37:56.746Z,37.10
2022-08-04T23:40:32.482Z,37.20
2022-08-04T23:43:01.844Z,37.40
2022-08-04T23:46:03.896Z,37.90
2022-08-04T23:48:20.807Z,39.00
2022-08-04T23:50:49.210Z,39.40
2022-08-04T23:53:22.495Z,39.80
2022-08-04T23:55:50.682Z,40.30
2022-08-04T23:58:20.943Z,41.30
